sensor_id;sensor_type;location;lat;lon;timestamp;temperature;humidity
72202;SHT30;60105;54.956;73.412;2022-11-23T00:01:30;-16.48;66.27
72202;SHT30;60105;54.956;73.412;2022-11-23T00:04:11;-16.42;65.51
72202;SHT30;60105;54.956;73.412;2022-11-23T00:06:37;-16.32;65.39
72202;SHT30;60105;54.956;73.412;2022-11-23T00:09:04;-16.20;64.77
72202;SHT30;60105;54.956;73.412;2022-11-23T00:11:41;-16.26;64.15
72202;SHT30;60105;54.956;73.412;2022-11-23T00:14:07;-16.31;64.33
72202;SHT30;60105;54.956;73.412;2022-11-23T00:16:33;-16.32;64.28
72202;SHT30;60105;54.956;73.412;2022-11-23T00:19:00;-16.31;64.24
72202;SHT30;60105;54.956;73.412;2022-11-23T00:21:29;-16.43;64.47
72202;SHT30;60105;54.956;73.412;2022-11-23T00:23:55;-16.45;64.83
72202;SHT30;60105;54.956;73.412;2022-11-23T00:26:22;-16.49;64.58
72202;SHT30;60105;54.956;73.412;2022-11-23T00:28:54;-16.39;65.06
72202;SHT30;60105;54.956;73.412;2022-11-23T00:31:24;-16.48;64.53
72202;SHT30;60105;54.956;73.412;2022-11-23T00:33:52;-16.35;64.63
72202;SHT30;60105;54.956;73.412;2022-11-23T00:36:25;-16.38;64.53
72202;SHT30;60105;54.956;73.412;2022-11-23T00:38:58;-16.32;64.17
72202;SHT30;60105;54.956;73.412;2022-11-23T00:41:25;-16.43;64.18
72202;SHT30;60105;54.956;73.412;2022-11-23T00:43:52;-16.45;64.79
72202;SHT30;60105;54.956;73.412;2022-11-23T00:46:23;-16.34;64.18
72202;SHT30;60105;54.956;73.412;2022-11-23T00:49:00;-16.42;63.93
72202;SHT30;60105;54.956;73.412;2022-11-23T00:51:29;-16.46;64.10
72202;SHT30;60105;54.956;73.412;2022-11-23T00:54:05;-16.51;64.43
72202;SHT30;60105;54.956;73.412;2022-11-23T00:56:33;-16.65;64.16
72202;SHT30;60105;54.956;73.412;2022-11-23T00:59:01;-16.73;64.40
72202;SHT30;60105;54.956;73.412;2022-11-23T01:01:30;-16.76;64.98
72202;SHT30;60105;54.956;73.412;2022-11-23T01:04:00;-16.90;65.12
72202;SHT30;60105;54.956;73.412;2022-11-23T01:06:36;-16.80;65.28
72202;SHT30;60105;54.956;73.412;2022-11-23T01:09:17;-16.67;64.80
72202;SHT30;60105;54.956;73.412;2022-11-23T01:11:48;-16.82;64.83
72202;SHT30;60105;54.956;73.412;2022-11-23T01:14:14;-16.77;64.85
72202;SHT30;60105;54.956;73.412;2022-11-23T01:16:49;-16.86;64.82
72202;SHT30;60105;54.956;73.412;2022-11-23T01:19:20;-16.89;65.29
72202;SHT30;60105;54.956;73.412;2022-11-23T01:21:48;-16.79;64.93
72202;SHT30;60105;54.956;73.412;2022-11-23T01:24:17;-16.92;65.38
72202;SHT30;60105;54.956;73.412;2022-11-23T01:26:44;-16.92;65.56
72202;SHT30;60105;54.956;73.412;2022-11-23T01:29:11;-16.93;65.40
72202;SHT30;60105;54.956;73.412;2022-11-23T01:31:39;-16.79;65.70
72202;SHT30;60105;54.956;73.412;2022-11-23T01:34:06;-16.70;64.41
72202;SHT30;60105;54.956;73.412;2022-11-23T01:36:42;-16.86;64.46
72202;SHT30;60105;54.956;73.412;2022-11-23T01:39:10;-16.83;64.86
72202;SHT30;60105;54.956;73.412;2022-11-23T01:41:40;-16.87;64.50
72202;SHT30;60105;54.956;73.412;2022-11-23T01:44:30;-17.01;64.60
72202;SHT30;60105;54.956;73.412;2022-11-23T01:46:59;-16.84;64.89
72202;SHT30;60105;54.956;73.412;2022-11-23T01:49:35;-16.86;64.52
72202;SHT30;60105;54.956;73.412;2022-11-23T01:52:14;-16.97;64.76
72202;SHT30;60105;54.956;73.412;2022-11-23T01:54:47;-16.87;64.74
72202;SHT30;60105;54.956;73.412;2022-11-23T01:57:21;-16.84;64.44
72202;SHT30;60105;54.956;73.412;2022-11-23T01:59:48;-16.83;64.32
72202;SHT30;60105;54.956;73.412;2022-11-23T02:02:16;-16.90;64.21
72202;SHT30;60105;54.956;73.412;2022-11-23T02:04:45;-16.89;64.17
72202;SHT30;60105;54.956;73.412;2022-11-23T02:07:24;-16.89;64.41
72202;SHT30;60105;54.956;73.412;2022-11-23T02:09:51;-16.86;64.43
72202;SHT30;60105;54.956;73.412;2022-11-23T02:12:19;-16.96;64.58
72202;SHT30;60105;54.956;73.412;2022-11-23T02:14:50;-17.03;64.63
72202;SHT30;60105;54.956;73.412;2022-11-23T02:17:18;-16.93;64.70
72202;SHT30;60105;54.956;73.412;2022-11-23T02:20:07;-16.90;64.67
72202;SHT30;60105;54.956;73.412;2022-11-23T02:28:14;-17.10;64.54
72202;SHT30;60105;54.956;73.412;2022-11-23T02:30:43;-17.13;64.72
72202;SHT30;60105;54.956;73.412;2022-11-23T02:33:10;-17.14;64.91
72202;SHT30;60105;54.956;73.412;2022-11-23T02:35:54;-17.18;65.11
72202;SHT30;60105;54.956;73.412;2022-11-23T02:38:31;-17.11;65.05
72202;SHT30;60105;54.956;73.412;2022-11-23T02:41:08;-16.93;64.55
72202;SHT30;60105;54.956;73.412;2022-11-23T02:43:34;-16.99;64.44
72202;SHT30;60105;54.956;73.412;2022-11-23T02:46:03;-17.00;64.60
72202;SHT30;60105;54.956;73.412;2022-11-23T02:48:29;-17.04;64.44
72202;SHT30;60105;54.956;73.412;2022-11-23T02:51:05;-17.06;64.59
72202;SHT30;60105;54.956;73.412;2022-11-23T02:53:31;-17.06;64.23
72202;SHT30;60105;54.956;73.412;2022-11-23T02:55:58;-17.24;65.01
72202;SHT30;60105;54.956;73.412;2022-11-23T02:58:24;-17.20;65.13
72202;SHT30;60105;54.956;73.412;2022-11-23T03:00:50;-17.06;65.39
72202;SHT30;60105;54.956;73.412;2022-11-23T03:03:19;-17.04;64.59
72202;SHT30;60105;54.956;73.412;2022-11-23T03:05:45;-17.13;65.08
72202;SHT30;60105;54.956;73.412;2022-11-23T03:08:11;-17.06;64.75
72202;SHT30;60105;54.956;73.412;2022-11-23T03:10:48;-17.27;64.94
72202;SHT30;60105;54.956;73.412;2022-11-23T03:13:14;-17.27;65.31
72202;SHT30;60105;54.956;73.412;2022-11-23T03:15:41;-17.15;64.93
72202;SHT30;60105;54.956;73.412;2022-11-23T03:18:08;-17.27;64.29
72202;SHT30;60105;54.956;73.412;2022-11-23T03:20:39;-17.14;64.70
72202;SHT30;60105;54.956;73.412;2022-11-23T03:23:05;-17.04;64.13
72202;SHT30;60105;54.956;73.412;2022-11-23T03:25:33;-17.23;63.83
72202;SHT30;60105;54.956;73.412;2022-11-23T03:28:02;-17.18;64.49
72202;SHT30;60105;54.956;73.412;2022-11-23T03:30:28;-17.07;64.63
72202;SHT30;60105;54.956;73.412;2022-11-23T03:32:57;-17.14;63.99
72202;SHT30;60105;54.956;73.412;2022-11-23T03:35:23;-17.07;64.30
72202;SHT30;60105;54.956;73.412;2022-11-23T03:38:10;-16.97;63.85
72202;SHT30;60105;54.956;73.412;2022-11-23T03:40:36;-16.96;63.98
72202;SHT30;60105;54.956;73.412;2022-11-23T03:43:30;-17.07;63.66
72202;SHT30;60105;54.956;73.412;2022-11-23T03:45:57;-16.94;63.51
72202;SHT30;60105;54.956;73.412;2022-11-23T03:48:23;-16.94;63.38
72202;SHT30;60105;54.956;73.412;2022-11-23T03:50:52;-17.06;63.56
72202;SHT30;60105;54.956;73.412;2022-11-23T03:53:18;-17.04;63.50
72202;SHT30;60105;54.956;73.412;2022-11-23T03:55:45;-17.14;63.70
72202;SHT30;60105;54.956;73.412;2022-11-23T03:58:13;-16.93;63.65
72202;SHT30;60105;54.956;73.412;2022-11-23T04:00:41;-17.00;63.18
72202;SHT30;60105;54.956;73.412;2022-11-23T04:03:14;-16.90;63.45
72202;SHT30;60105;54.956;73.412;2022-11-23T04:06:04;-16.70;63.12
72202;SHT30;60105;54.956;73.412;2022-11-23T04:08:49;-16.62;62.56
72202;SHT30;60105;54.956;73.412;2022-11-23T04:11:35;-16.53;61.92
72202;SHT30;60105;54.956;73.412;2022-11-23T04:14:05;-16.66;62.13
72202;SHT30;60105;54.956;73.412;2022-11-23T04:16:32;-16.67;61.90
72202;SHT30;60105;54.956;73.412;2022-11-23T04:18:58;-16.80;61.72
72202;SHT30;60105;54.956;73.412;2022-11-23T04:21:24;-16.90;62.27
72202;SHT30;60105;54.956;73.412;2022-11-23T04:24:01;-16.79;62.35
72202;SHT30;60105;54.956;73.412;2022-11-23T04:26:34;-16.79;63.00
72202;SHT30;60105;54.956;73.412;2022-11-23T04:29:01;-16.60;62.53
72202;SHT30;60105;54.956;73.412;2022-11-23T04:31:33;-16.46;61.26
72202;SHT30;60105;54.956;73.412;2022-11-23T04:34:19;-16.45;61.85
72202;SHT30;60105;54.956;73.412;2022-11-23T04:36:48;-16.46;61.94
72202;SHT30;60105;54.956;73.412;2022-11-23T04:39:19;-16.28;61.04
72202;SHT30;60105;54.956;73.412;2022-11-23T04:42:23;-16.49;60.60
72202;SHT30;60105;54.956;73.412;2022-11-23T04:44:57;-16.41;61.46
72202;SHT30;60105;54.956;73.412;2022-11-23T04:47:34;-16.35;60.74
72202;SHT30;60105;54.956;73.412;2022-11-23T04:50:09;-16.38;60.82
72202;SHT30;60105;54.956;73.412;2022-11-23T04:52:36;-16.35;61.41
72202;SHT30;60105;54.956;73.412;2022-11-23T04:55:06;-16.18;60.62
72202;SHT30;60105;54.956;73.412;2022-11-23T04:57:38;-16.26;60.52
72202;SHT30;60105;54.956;73.412;2022-11-23T05:00:05;-16.15;60.88
72202;SHT30;60105;54.956;73.412;2022-11-23T05:02:34;-16.13;60.60
72202;SHT30;60105;54.956;73.412;2022-11-23T05:05:18;-15.95;60.18
72202;SHT30;60105;54.956;73.412;2022-11-23T05:07:44;-15.93;59.88
72202;SHT30;60105;54.956;73.412;2022-11-23T05:10:11;-15.94;60.20
72202;SHT30;60105;54.956;73.412;2022-11-23T05:12:38;-15.91;60.18
72202;SHT30;60105;54.956;73.412;2022-11-23T05:15:06;-15.73;59.90
72202;SHT30;60105;54.956;73.412;2022-11-23T05:17:36;-15.76;59.69
72202;SHT30;60105;54.956;73.412;2022-11-23T05:20:14;-15.70;59.66
72202;SHT30;60105;54.956;73.412;2022-11-23T05:22:46;-15.72;59.21
72202;SHT30;60105;54.956;73.412;2022-11-23T05:25:25;-15.82;59.70
72202;SHT30;60105;54.956;73.412;2022-11-23T05:28:03;-15.94;59.72
72202;SHT30;60105;54.956;73.412;2022-11-23T05:30:34;-15.90;60.19
72202;SHT30;60105;54.956;73.412;2022-11-23T05:33:03;-15.80;59.75
72202;SHT30;60105;54.956;73.412;2022-11-23T05:35:30;-15.90;59.89
72202;SHT30;60105;54.956;73.412;2022-11-23T05:37:57;-15.59;59.22
72202;SHT30;60105;54.956;73.412;2022-11-23T05:40:23;-15.31;58.03
72202;SHT30;60105;54.956;73.412;2022-11-23T05:42:57;-15.45;57.85
72202;SHT30;60105;54.956;73.412;2022-11-23T05:45:24;-15.49;58.02
72202;SHT30;60105;54.956;73.412;2022-11-23T05:47:57;-15.41;57.94
72202;SHT30;60105;54.956;73.412;2022-11-23T05:50:39;-15.42;57.96
72202;SHT30;60105;54.956;73.412;2022-11-23T05:53:32;-15.38;57.94
72202;SHT30;60105;54.956;73.412;2022-11-23T05:56:17;-15.32;58.05
72202;SHT30;60105;54.956;73.412;2022-11-23T05:59:04;-15.55;58.88
72202;SHT30;60105;54.956;73.412;2022-11-23T06:01:34;-15.52;58.39
72202;SHT30;60105;54.956;73.412;2022-11-23T06:04:02;-15.63;58.43
72202;SHT30;60105;54.956;73.412;2022-11-23T06:06:35;-15.58;58.52
72202;SHT30;60105;54.956;73.412;2022-11-23T06:09:01;-15.46;58.21
72202;SHT30;60105;54.956;73.412;2022-11-23T06:11:28;-15.38;57.81
72202;SHT30;60105;54.956;73.412;2022-11-23T06:14:00;-15.55;58.10
72202;SHT30;60105;54.956;73.412;2022-11-23T06:16:27;-15.46;58.98
72202;SHT30;60105;54.956;73.412;2022-11-23T06:19:07;-15.45;58.36
72202;SHT30;60105;54.956;73.412;2022-11-23T06:21:38;-15.46;58.30
72202;SHT30;60105;54.956;73.412;2022-11-23T06:24:05;-15.35;58.81
72202;SHT30;60105;54.956;73.412;2022-11-23T06:26:32;-15.03;58.14
72202;SHT30;60105;54.956;73.412;2022-11-23T06:28:58;-14.83;57.73
72202;SHT30;60105;54.956;73.412;2022-11-23T06:31:24;-14.73;57.04
72202;SHT30;60105;54.956;73.412;2022-11-23T06:33:51;-14.73;56.97
72202;SHT30;60105;54.956;73.412;2022-11-23T06:36:17;-14.84;57.02
72202;SHT30;60105;54.956;73.412;2022-11-23T06:38:48;-14.75;57.14
72202;SHT30;60105;54.956;73.412;2022-11-23T06:41:18;-14.86;57.53
72202;SHT30;60105;54.956;73.412;2022-11-23T06:43:51;-14.75;57.51
72202;SHT30;60105;54.956;73.412;2022-11-23T06:46:30;-14.61;57.66
72202;SHT30;60105;54.956;73.412;2022-11-23T06:48:56;-14.75;57.64
72202;SHT30;60105;54.956;73.412;2022-11-23T06:51:22;-14.72;57.51
72202;SHT30;60105;54.956;73.412;2022-11-23T06:53:50;-15.04;57.54
72202;SHT30;60105;54.956;73.412;2022-11-23T06:56:23;-14.89;58.04
72202;SHT30;60105;54.956;73.412;2022-11-23T06:58:49;-14.80;57.67
72202;SHT30;60105;54.956;73.412;2022-11-23T07:01:21;-14.56;57.47
72202;SHT30;60105;54.956;73.412;2022-11-23T07:03:59;-14.42;56.75
72202;SHT30;60105;54.956;73.412;2022-11-23T07:06:30;-14.61;57.12
72202;SHT30;60105;54.956;73.412;2022-11-23T07:08:59;-14.59;57.58
72202;SHT30;60105;54.956;73.412;2022-11-23T07:11:57;-14.34;57.07
72202;SHT30;60105;54.956;73.412;2022-11-23T07:14:23;-14.39;56.80
72202;SHT30;60105;54.956;73.412;2022-11-23T07:16:57;-14.38;56.41
72202;SHT30;60105;54.956;73.412;2022-11-23T07:19:23;-14.46;57.24
72202;SHT30;60105;54.956;73.412;2022-11-23T07:21:51;-14.34;57.07
72202;SHT30;60105;54.956;73.412;2022-11-23T07:24:17;-14.41;57.31
72202;SHT30;60105;54.956;73.412;2022-11-23T07:26:44;-14.32;57.67
72202;SHT30;60105;54.956;73.412;2022-11-23T07:29:10;-14.20;56.42
72202;SHT30;60105;54.956;73.412;2022-11-23T07:31:39;-14.06;56.20
72202;SHT30;60105;54.956;73.412;2022-11-23T07:34:06;-14.00;55.64
72202;SHT30;60105;54.956;73.412;2022-11-23T07:36:34;-14.21;55.83
72202;SHT30;60105;54.956;73.412;2022-11-23T07:39:11;-14.52;56.75
72202;SHT30;60105;54.956;73.412;2022-11-23T07:41:38;-14.32;57.54
72202;SHT30;60105;54.956;73.412;2022-11-23T07:44:34;-14.11;57.42
72202;SHT30;60105;54.956;73.412;2022-11-23T07:47:01;-14.00;56.45
72202;SHT30;60105;54.956;73.412;2022-11-23T07:49:27;-13.91;56.29
72202;SHT30;60105;54.956;73.412;2022-11-23T07:51:53;-13.80;56.09
72202;SHT30;60105;54.956;73.412;2022-11-23T07:54:21;-13.67;55.86
72202;SHT30;60105;54.956;73.412;2022-11-23T07:56:57;-13.60;55.22
72202;SHT30;60105;54.956;73.412;2022-11-23T07:59:23;-13.55;55.20
72202;SHT30;60105;54.956;73.412;2022-11-23T08:01:49;-13.73;54.99
72202;SHT30;60105;54.956;73.412;2022-11-23T08:04:15;-13.81;55.37
72202;SHT30;60105;54.956;73.412;2022-11-23T08:06:41;-13.74;55.69
72202;SHT30;60105;54.956;73.412;2022-11-23T08:09:08;-13.72;55.92
72202;SHT30;60105;54.956;73.412;2022-11-23T08:11:34;-13.84;56.07
72202;SHT30;60105;54.956;73.412;2022-11-23T08:14:00;-13.72;56.20
72202;SHT30;60105;54.956;73.412;2022-11-23T08:16:26;-13.74;55.49
72202;SHT30;60105;54.956;73.412;2022-11-23T08:18:52;-13.67;55.47
72202;SHT30;60105;54.956;73.412;2022-11-23T08:21:19;-13.51;55.25
72202;SHT30;60105;54.956;73.412;2022-11-23T08:23:45;-13.60;55.01
72202;SHT30;60105;54.956;73.412;2022-11-23T08:26:16;-13.83;55.39
72202;SHT30;60105;54.956;73.412;2022-11-23T08:28:42;-13.74;55.78
72202;SHT30;60105;54.956;73.412;2022-11-23T08:31:13;-13.56;55.28
72202;SHT30;60105;54.956;73.412;2022-11-23T08:33:40;-13.59;55.24
72202;SHT30;60105;54.956;73.412;2022-11-23T08:36:07;-13.60;55.50
72202;SHT30;60105;54.956;73.412;2022-11-23T08:38:34;-13.58;55.77
72202;SHT30;60105;54.956;73.412;2022-11-23T08:41:01;-13.56;55.58
72202;SHT30;60105;54.956;73.412;2022-11-23T08:43:28;-13.62;55.14
72202;SHT30;60105;54.956;73.412;2022-11-23T08:45:55;-13.65;55.69
72202;SHT30;60105;54.956;73.412;2022-11-23T08:48:22;-13.76;55.85
72202;SHT30;60105;54.956;73.412;2022-11-23T08:50:49;-13.72;55.95
72202;SHT30;60105;54.956;73.412;2022-11-23T08:53:16;-13.53;55.49
72202;SHT30;60105;54.956;73.412;2022-11-23T08:55:48;-13.48;55.67
72202;SHT30;60105;54.956;73.412;2022-11-23T08:58:14;-13.34;55.10
72202;SHT30;60105;54.956;73.412;2022-11-23T09:00:45;-13.38;54.70
72202;SHT30;60105;54.956;73.412;2022-11-23T09:03:11;-13.53;55.74
72202;SHT30;60105;54.956;73.412;2022-11-23T09:05:47;-13.60;56.10
72202;SHT30;60105;54.956;73.412;2022-11-23T09:08:13;-13.76;56.34
72202;SHT30;60105;54.956;73.412;2022-11-23T09:10:46;-13.69;56.50
72202;SHT30;60105;54.956;73.412;2022-11-23T09:13:12;-13.62;56.69
72202;SHT30;60105;54.956;73.412;2022-11-23T09:15:38;-13.70;56.71
72202;SHT30;60105;54.956;73.412;2022-11-23T09:18:05;-13.69;56.14
72202;SHT30;60105;54.956;73.412;2022-11-23T09:20:31;-13.67;56.23
72202;SHT30;60105;54.956;73.412;2022-11-23T09:23:05;-13.74;56.28
72202;SHT30;60105;54.956;73.412;2022-11-23T09:25:31;-13.81;56.61
72202;SHT30;60105;54.956;73.412;2022-11-23T09:27:58;-13.79;56.37
72202;SHT30;60105;54.956;73.412;2022-11-23T09:30:35;-13.83;55.83
72202;SHT30;60105;54.956;73.412;2022-11-23T09:33:01;-13.91;56.45
72202;SHT30;60105;54.956;73.412;2022-11-23T09:35:27;-13.90;56.70
72202;SHT30;60105;54.956;73.412;2022-11-23T09:37:57;-13.93;56.63
72202;SHT30;60105;54.956;73.412;2022-11-23T09:45:54;-14.09;56.77
72202;SHT30;60105;54.956;73.412;2022-11-23T09:51:00;-14.06;56.71
72202;SHT30;60105;54.956;73.412;2022-11-23T09:53:31;-14.14;56.53
72202;SHT30;60105;54.956;73.412;2022-11-23T09:55:59;-14.16;56.62
72202;SHT30;60105;54.956;73.412;2022-11-23T09:58:31;-14.28;57.07
72202;SHT30;60105;54.956;73.412;2022-11-23T10:01:07;-14.17;57.10
72202;SHT30;60105;54.956;73.412;2022-11-23T10:03:38;-14.27;57.15
72202;SHT30;60105;54.956;73.412;2022-11-23T10:06:21;-14.24;57.70
72202;SHT30;60105;54.956;73.412;2022-11-23T10:17:20;-14.30;58.28
72202;SHT30;60105;54.956;73.412;2022-11-23T10:22:59;-14.24;57.69
72202;SHT30;60105;54.956;73.412;2022-11-23T10:25:31;-14.18;57.40
72202;SHT30;60105;54.956;73.412;2022-11-23T10:28:11;-14.27;57.69
72202;SHT30;60105;54.956;73.412;2022-11-23T10:30:38;-14.31;58.25
72202;SHT30;60105;54.956;73.412;2022-11-23T10:33:20;-14.38;58.85
72202;SHT30;60105;54.956;73.412;2022-11-23T10:36:01;-14.41;58.55
72202;SHT30;60105;54.956;73.412;2022-11-23T10:38:33;-14.49;58.74
72202;SHT30;60105;54.956;73.412;2022-11-23T10:43:50;-14.38;58.76
72202;SHT30;60105;54.956;73.412;2022-11-23T10:46:29;-14.42;58.70
72202;SHT30;60105;54.956;73.412;2022-11-23T10:49:18;-14.49;58.91
72202;SHT30;60105;54.956;73.412;2022-11-23T10:52:01;-14.56;58.84
72202;SHT30;60105;54.956;73.412;2022-11-23T10:57:33;-14.68;58.87
72202;SHT30;60105;54.956;73.412;2022-11-23T11:02:51;-14.89;58.52
72202;SHT30;60105;54.956;73.412;2022-11-23T11:05:38;-14.94;58.84
72202;SHT30;60105;54.956;73.412;2022-11-23T11:08:15;-15.00;59.53
72202;SHT30;60105;54.956;73.412;2022-11-23T11:10:56;-15.10;60.04
72202;SHT30;60105;54.956;73.412;2022-11-23T11:13:24;-15.12;59.75
72202;SHT30;60105;54.956;73.412;2022-11-23T11:15:56;-15.18;59.73
72202;SHT30;60105;54.956;73.412;2022-11-23T11:18:31;-15.14;59.77
72202;SHT30;60105;54.956;73.412;2022-11-23T11:21:09;-15.01;59.89
72202;SHT30;60105;54.956;73.412;2022-11-23T11:24:02;-15.08;59.90
72202;SHT30;60105;54.956;73.412;2022-11-23T11:26:30;-15.17;60.30
72202;SHT30;60105;54.956;73.412;2022-11-23T11:29:00;-14.97;60.12
72202;SHT30;60105;54.956;73.412;2022-11-23T11:31:44;-14.90;59.80
72202;SHT30;60105;54.956;73.412;2022-11-23T11:37:36;-14.90;59.76
72202;SHT30;60105;54.956;73.412;2022-11-23T11:40:27;-14.90;60.14
72202;SHT30;60105;54.956;73.412;2022-11-23T11:42:58;-14.87;60.10
72202;SHT30;60105;54.956;73.412;2022-11-23T11:45:47;-15.07;60.63
72202;SHT30;60105;54.956;73.412;2022-11-23T11:48:32;-14.91;60.61
72202;SHT30;60105;54.956;73.412;2022-11-23T11:51:12;-14.90;60.16
72202;SHT30;60105;54.956;73.412;2022-11-23T11:56:53;-14.99;60.07
72202;SHT30;60105;54.956;73.412;2022-11-23T12:02:08;-15.06;60.53
72202;SHT30;60105;54.956;73.412;2022-11-23T12:04:52;-15.12;61.19
72202;SHT30;60105;54.956;73.412;2022-11-23T12:07:31;-14.91;60.87
72202;SHT30;60105;54.956;73.412;2022-11-23T12:10:19;-14.86;60.27
72202;SHT30;60105;54.956;73.412;2022-11-23T12:12:48;-14.82;60.06
72202;SHT30;60105;54.956;73.412;2022-11-23T12:15:31;-14.77;59.96
72202;SHT30;60105;54.956;73.412;2022-11-23T12:20:57;-14.87;60.30
72202;SHT30;60105;54.956;73.412;2022-11-23T12:24:01;-15.14;61.09
72202;SHT30;60105;54.956;73.412;2022-11-23T12:32:33;-15.31;61.79
72202;SHT30;60105;54.956;73.412;2022-11-23T12:38:22;-15.21;61.48
72202;SHT30;60105;54.956;73.412;2022-11-23T12:46:44;-15.28;61.60
72202;SHT30;60105;54.956;73.412;2022-11-23T12:52:44;-15.41;62.40
72202;SHT30;60105;54.956;73.412;2022-11-23T12:55:30;-15.22;62.10
72202;SHT30;60105;54.956;73.412;2022-11-23T12:58:19;-15.24;61.31
72202;SHT30;60105;54.956;73.412;2022-11-23T13:01:03;-15.27;61.59
72202;SHT30;60105;54.956;73.412;2022-11-23T13:18:12;-15.35;62.73
72202;SHT30;60105;54.956;73.412;2022-11-23T13:23:36;-15.43;62.40
72202;SHT30;60105;54.956;73.412;2022-11-23T13:26:24;-15.39;61.65
72202;SHT30;60105;54.956;73.412;2022-11-23T13:28:52;-15.41;61.43
72202;SHT30;60105;54.956;73.412;2022-11-23T13:31:22;-15.61;61.97
72202;SHT30;60105;54.956;73.412;2022-11-23T13:34:01;-15.67;62.40
72202;SHT30;60105;54.956;73.412;2022-11-23T13:36:40;-15.55;62.62
72202;SHT30;60105;54.956;73.412;2022-11-23T13:42:12;-15.65;62.19
72202;SHT30;60105;54.956;73.412;2022-11-23T13:44:38;-15.63;61.71
72202;SHT30;60105;54.956;73.412;2022-11-23T13:49:49;-15.72;61.34
72202;SHT30;60105;54.956;73.412;2022-11-23T13:57:40;-15.73;61.78
72202;SHT30;60105;54.956;73.412;2022-11-23T14:06:38;-15.84;61.89
72202;SHT30;60105;54.956;73.412;2022-11-23T14:09:21;-15.84;62.38
72202;SHT30;60105;54.956;73.412;2022-11-23T14:12:01;-15.84;62.14
72202;SHT30;60105;54.956;73.412;2022-11-23T14:14:34;-15.84;61.93
72202;SHT30;60105;54.956;73.412;2022-11-23T14:26:11;-15.97;61.59
72202;SHT30;60105;54.956;73.412;2022-11-23T14:34:46;-16.05;62.46
72202;SHT30;60105;54.956;73.412;2022-11-23T14:37:35;-16.07;62.55
72202;SHT30;60105;54.956;73.412;2022-11-23T14:40:27;-16.07;62.15
72202;SHT30;60105;54.956;73.412;2022-11-23T14:43:11;-16.01;62.41
72202;SHT30;60105;54.956;73.412;2022-11-23T14:45:39;-15.97;62.14
72202;SHT30;60105;54.956;73.412;2022-11-23T14:48:26;-16.03;62.12
72202;SHT30;60105;54.956;73.412;2022-11-23T14:51:00;-16.03;62.66
72202;SHT30;60105;54.956;73.412;2022-11-23T14:53:43;-16.05;62.64
72202;SHT30;60105;54.956;73.412;2022-11-23T14:56:37;-16.20;62.96
72202;SHT30;60105;54.956;73.412;2022-11-23T14:59:09;-16.20;63.21
72202;SHT30;60105;54.956;73.412;2022-11-23T15:02:03;-16.13;63.19
72202;SHT30;60105;54.956;73.412;2022-11-23T15:04:33;-16.11;63.09
72202;SHT30;60105;54.956;73.412;2022-11-23T15:07:11;-16.11;63.09
72202;SHT30;60105;54.956;73.412;2022-11-23T15:12:41;-16.03;62.94
72202;SHT30;60105;54.956;73.412;2022-11-23T15:15:22;-16.08;62.69
72202;SHT30;60105;54.956;73.412;2022-11-23T15:17:59;-16.08;62.75
72202;SHT30;60105;54.956;73.412;2022-11-23T15:20:31;-16.18;63.24
72202;SHT30;60105;54.956;73.412;2022-11-23T15:23:03;-16.17;63.78
72202;SHT30;60105;54.956;73.412;2022-11-23T15:25:30;-16.11;63.64
72202;SHT30;60105;54.956;73.412;2022-11-23T15:27:56;-16.17;63.39
72202;SHT30;60105;54.956;73.412;2022-11-23T15:30:34;-16.18;63.31
72202;SHT30;60105;54.956;73.412;2022-11-23T15:33:12;-16.31;63.41
72202;SHT30;60105;54.956;73.412;2022-11-23T15:35:39;-16.24;63.61
72202;SHT30;60105;54.956;73.412;2022-11-23T15:38:13;-16.29;63.93
72202;SHT30;60105;54.956;73.412;2022-11-23T15:40:50;-16.24;63.82
72202;SHT30;60105;54.956;73.412;2022-11-23T15:43:18;-16.35;63.96
72202;SHT30;60105;54.956;73.412;2022-11-23T15:48:20;-16.17;63.94
72202;SHT30;60105;54.956;73.412;2022-11-23T15:50:50;-16.14;63.87
72202;SHT30;60105;54.956;73.412;2022-11-23T15:53:17;-16.24;64.14
72202;SHT30;60105;54.956;73.412;2022-11-23T15:55:58;-16.24;64.26
72202;SHT30;60105;54.956;73.412;2022-11-23T15:58:25;-16.34;65.04
72202;SHT30;60105;54.956;73.412;2022-11-23T16:06:16;-16.31;65.06
72202;SHT30;60105;54.956;73.412;2022-11-23T16:08:48;-16.34;64.99
72202;SHT30;60105;54.956;73.412;2022-11-23T16:13:47;-16.24;65.17
72202;SHT30;60105;54.956;73.412;2022-11-23T16:16:21;-16.22;64.84
72202;SHT30;60105;54.956;73.412;2022-11-23T16:18:52;-16.29;65.02
72202;SHT30;60105;54.956;73.412;2022-11-23T16:21:33;-16.41;64.85
72202;SHT30;60105;54.956;73.412;2022-11-23T16:23:59;-16.46;65.03
72202;SHT30;60105;54.956;73.412;2022-11-23T16:26:30;-16.56;65.48
72202;SHT30;60105;54.956;73.412;2022-11-23T16:29:01;-16.56;65.76
72202;SHT30;60105;54.956;73.412;2022-11-23T16:31:39;-16.56;65.59
72202;SHT30;60105;54.956;73.412;2022-11-23T16:34:17;-16.52;65.75
72202;SHT30;60105;54.956;73.412;2022-11-23T16:36:44;-16.52;65.54
72202;SHT30;60105;54.956;73.412;2022-11-23T16:39:16;-16.55;65.86
72202;SHT30;60105;54.956;73.412;2022-11-23T16:41:42;-16.51;65.77
72202;SHT30;60105;54.956;73.412;2022-11-23T16:44:08;-16.57;65.65
72202;SHT30;60105;54.956;73.412;2022-11-23T16:46:35;-16.56;65.96
72202;SHT30;60105;54.956;73.412;2022-11-23T16:49:01;-16.59;65.79
72202;SHT30;60105;54.956;73.412;2022-11-23T16:51:27;-16.36;65.89
72202;SHT30;60105;54.956;73.412;2022-11-23T16:53:55;-16.25;64.75
72202;SHT30;60105;54.956;73.412;2022-11-23T16:56:24;-16.34;64.89
72202;SHT30;60105;54.956;73.412;2022-11-23T16:58:51;-16.29;64.83
72202;SHT30;60105;54.956;73.412;2022-11-23T17:01:21;-16.22;64.49
72202;SHT30;60105;54.956;73.412;2022-11-23T17:03:56;-16.18;64.16
72202;SHT30;60105;54.956;73.412;2022-11-23T17:06:22;-16.32;64.05
72202;SHT30;60105;54.956;73.412;2022-11-23T17:08:49;-16.48;64.25
72202;SHT30;60105;54.956;73.412;2022-11-23T17:11:20;-16.53;64.96
72202;SHT30;60105;54.956;73.412;2022-11-23T17:13:57;-16.52;65.19
72202;SHT30;60105;54.956;73.412;2022-11-23T17:16:24;-16.59;65.31
72202;SHT30;60105;54.956;73.412;2022-11-23T17:18:51;-16.69;65.75
72202;SHT30;60105;54.956;73.412;2022-11-23T17:21:18;-16.69;65.80
72202;SHT30;60105;54.956;73.412;2022-11-23T17:23:48;-16.70;65.83
72202;SHT30;60105;54.956;73.412;2022-11-23T17:26:36;-16.69;65.81
72202;SHT30;60105;54.956;73.412;2022-11-23T17:29:11;-16.72;65.89
72202;SHT30;60105;54.956;73.412;2022-11-23T17:31:42;-16.76;66.17
72202;SHT30;60105;54.956;73.412;2022-11-23T17:34:11;-16.83;66.36
72202;SHT30;60105;54.956;73.412;2022-11-23T17:36:38;-16.83;66.51
72202;SHT30;60105;54.956;73.412;2022-11-23T17:39:24;-16.75;66.70
72202;SHT30;60105;54.956;73.412;2022-11-23T17:41:51;-16.67;66.43